createdAt,value
2022-11-25T00:00:06.262Z,64.56
2022-11-25T00:02:33.925Z,64.62
2022-11-25T00:05:03.059Z,64.65
2022-11-25T00:07:30.669Z,64.75
2022-11-25T00:09:58.291Z,64.74
2022-11-25T00:12:25.926Z,64.62
2022-11-25T00:14:53.547Z,64.70
2022-11-25T00:17:21.156Z,64.85
2022-11-25T00:19:50.828Z,64.60
2022-11-25T00:22:19.818Z,64.63
2022-11-25T00:24:47.415Z,64.83
2022-11-25T00:27:15.058Z,64.81
2022-11-25T00:29:42.628Z,64.81
2022-11-25T00:32:10.301Z,64.75
2022-11-25T00:34:37.960Z,64.55
2022-11-25T00:37:05.597Z,64.88
2022-11-25T00:39:34.621Z,64.80
2022-11-25T00:42:38.237Z,64.90
2022-11-25T00:45:07.287Z,64.61
2022-11-25T00:47:34.893Z,64.83
2022-11-25T00:50:02.472Z,64.82
2022-11-25T00:52:30.056Z,64.89
2022-11-25T00:54:59.067Z,64.83
2022-11-25T00:57:26.611Z,64.72
2022-11-25T00:59:54.235Z,64.77
2022-11-25T01:02:22.040Z,64.63
2022-11-25T01:04:49.631Z,64.65
2022-11-25T01:07:17.391Z,64.71
2022-11-25T01:09:45.055Z,64.74
2022-11-25T01:12:14.075Z,64.84
2022-11-25T01:14:41.845Z,64.79
2022-11-25T01:17:09.404Z,64.83
2022-11-25T01:19:39.946Z,64.71
2022-11-25T01:22:07.682Z,64.73
2022-11-25T01:24:35.779Z,64.83
2022-11-25T01:27:03.589Z,64.78
2022-11-25T01:29:32.640Z,64.85
2022-11-25T01:32:00.336Z,64.86
2022-11-25T01:34:28.167Z,64.91
2022-11-25T01:36:55.776Z,64.85
2022-11-25T01:39:28.616Z,64.76
2022-11-25T01:41:59.540Z,65.07
2022-11-25T01:44:28.544Z,64.92
2022-11-25T01:47:00.021Z,64.98
2022-11-25T01:49:33.405Z,64.84
2022-11-25T01:52:03.981Z,65.05
2022-11-25T01:54:34.675Z,65.01
2022-11-25T01:57:04.838Z,65.07
2022-11-25T01:59:33.480Z,65.12
2022-11-25T02:02:02.443Z,65.32
2022-11-25T02:04:33.555Z,65.11
2022-11-25T02:07:04.817Z,65.15
2022-11-25T02:09:32.394Z,65.16
2022-11-25T02:11:59.980Z,65.08
2022-11-25T02:14:27.679Z,65.33
2022-11-25T02:16:55.263Z,65.11
2022-11-25T02:19:26.276Z,65.28
2022-11-25T02:21:57.612Z,65.23
2022-11-25T02:24:29.849Z,65.26
2022-11-25T02:26:58.842Z,65.15
2022-11-25T02:29:26.551Z,65.09
2022-11-25T02:31:54.235Z,65.18
2022-11-25T02:34:21.935Z,65.21
2022-11-25T02:36:49.607Z,65.11
2022-11-25T02:39:17.173Z,65.30
2022-11-25T02:41:45.409Z,64.90
2022-11-25T02:44:14.489Z,65.11
2022-11-25T02:46:42.056Z,65.08
2022-11-25T02:49:10.527Z,64.92
2022-11-25T02:51:38.589Z,65.01
2022-11-25T02:54:06.220Z,65.14
2022-11-25T02:56:34.881Z,65.28
2022-11-25T02:59:02.492Z,65.00
2022-11-25T03:01:31.976Z,65.11
2022-11-25T03:03:59.798Z,65.02
2022-11-25T03:06:27.359Z,65.38
2022-11-25T03:08:54.941Z,65.33
2022-11-25T03:11:42.544Z,64.99
2022-11-25T03:14:10.136Z,65.17
2022-11-25T03:16:39.219Z,65.51
2022-11-25T03:19:08.400Z,65.50
2022-11-25T03:21:35.992Z,65.49
2022-11-25T03:24:03.561Z,65.81
2022-11-25T03:26:31.249Z,65.58
2022-11-25T03:28:58.907Z,65.46
2022-11-25T03:31:26.563Z,65.56
2022-11-25T03:33:56.351Z,65.21
2022-11-25T03:36:23.926Z,65.42
2022-11-25T03:38:51.547Z,65.49
2022-11-25T03:41:19.087Z,65.49
2022-11-25T03:43:47.143Z,65.32
2022-11-25T03:46:14.810Z,65.46
2022-11-25T03:48:42.396Z,65.66
2022-11-25T03:51:11.305Z,65.44
2022-11-25T03:53:38.892Z,65.40
2022-11-25T03:56:06.780Z,65.74
2022-11-25T03:58:34.547Z,65.71
2022-11-25T04:01:02.143Z,65.77
2022-11-25T04:03:29.837Z,65.58
2022-11-25T04:05:57.474Z,65.57
2022-11-25T04:08:27.360Z,65.73
2022-11-25T04:10:54.962Z,65.59
2022-11-25T04:13:21.713Z,65.92
2022-11-25T04:15:50.252Z,65.88
2022-11-25T04:18:18.653Z,65.64
2022-11-25T04:20:46.463Z,65.55
2022-11-25T04:23:14.212Z,65.89
2022-11-25T04:25:43.176Z,65.63
2022-11-25T04:28:10.769Z,65.85
2022-11-25T04:30:38.421Z,65.61
2022-11-25T04:33:06.132Z,65.80
2022-11-25T04:35:33.688Z,65.79
2022-11-25T04:38:01.293Z,65.91
2022-11-25T04:40:29.024Z,65.79
2022-11-25T04:43:03.489Z,65.64
2022-11-25T04:45:58.689Z,65.91
2022-11-25T04:48:21.359Z,65.62
2022-11-25T04:50:49.011Z,65.63
2022-11-25T04:53:16.594Z,65.81
2022-11-25T04:55:44.193Z,65.68
2022-11-25T04:58:13.223Z,66.01
2022-11-25T05:00:39.842Z,65.67
2022-11-25T05:03:07.738Z,65.72
2022-11-25T05:05:35.340Z,65.61
2022-11-25T05:08:02.974Z,65.64
2022-11-25T05:10:30.661Z,65.64
2022-11-25T05:12:58.221Z,65.60
2022-11-25T05:15:27.224Z,65.58
2022-11-25T05:17:54.839Z,65.51
2022-11-25T05:20:22.392Z,65.64
2022-11-25T05:22:50.167Z,65.06
2022-11-25T05:25:17.829Z,65.16
2022-11-25T05:27:45.452Z,65.04
2022-11-25T05:30:13.556Z,65.27
2022-11-25T05:32:42.516Z,65.10
2022-11-25T05:35:10.268Z,64.59
2022-11-25T05:37:37.868Z,64.82
2022-11-25T05:40:06.597Z,64.68
2022-11-25T05:42:34.162Z,64.53
2022-11-25T05:45:02.125Z,64.40
2022-11-25T05:47:29.675Z,64.22
2022-11-25T05:49:58.600Z,64.27
2022-11-25T05:52:26.211Z,64.01
2022-11-25T05:54:57.247Z,63.82
2022-11-25T05:57:25.355Z,63.74
2022-11-25T05:59:52.904Z,63.47
2022-11-25T06:02:20.521Z,63.47
2022-11-25T06:04:48.091Z,63.52
2022-11-25T06:07:17.080Z,63.34
2022-11-25T06:09:44.667Z,63.31
2022-11-25T06:12:12.190Z,63.06
2022-11-25T06:14:39.803Z,62.98
2022-11-25T06:17:07.387Z,63.05
2022-11-25T06:19:34.955Z,62.97
2022-11-25T06:22:02.503Z,62.80
2022-11-25T06:24:31.684Z,62.66
2022-11-25T06:27:00.501Z,62.60
2022-11-25T06:29:28.184Z,62.57
2022-11-25T06:31:55.754Z,62.47
2022-11-25T06:34:23.535Z,62.45
2022-11-25T06:36:51.092Z,62.32
2022-11-25T06:39:18.915Z,62.19
2022-11-25T06:41:48.068Z,62.25
2022-11-25T06:44:15.870Z,62.10
2022-11-25T06:46:43.488Z,62.04
2022-11-25T06:49:11.071Z,62.02
2022-11-25T06:51:38.632Z,61.69
2022-11-25T06:54:07.171Z,61.76
2022-11-25T06:56:34.739Z,61.79
2022-11-25T06:59:03.952Z,61.78
2022-11-25T07:01:31.838Z,61.69
2022-11-25T07:04:00.291Z,61.59
2022-11-25T07:06:27.994Z,61.60
2022-11-25T07:08:55.586Z,61.41
2022-11-25T07:11:24.209Z,61.47
2022-11-25T07:13:52.908Z,61.43
2022-11-25T07:16:21.915Z,54.85
2022-11-25T07:18:49.662Z,42.10
2022-11-25T07:21:18.001Z,48.73
2022-11-25T07:23:46.150Z,51.31
2022-11-25T07:26:14.680Z,49.95
2022-11-25T07:28:42.319Z,50.14
2022-11-25T07:34:00.941Z,51.72
2022-11-25T07:36:28.639Z,51.51
2022-11-25T07:38:56.287Z,51.86
2022-11-25T07:41:24.823Z,51.65
2022-11-25T07:43:53.578Z,51.90
2022-11-25T07:46:26.468Z,51.19
2022-11-25T07:48:54.739Z,51.49
2022-11-25T07:51:24.395Z,51.38
2022-11-25T07:53:52.266Z,51.49
2022-11-25T07:56:19.911Z,51.32
2022-11-25T07:58:47.552Z,51.20
2022-11-25T08:01:15.486Z,50.44
2022-11-25T08:03:43.596Z,50.58
2022-11-25T08:06:12.148Z,51.60
2022-11-25T08:08:41.407Z,51.44
2022-11-25T08:11:09.236Z,51.58
2022-11-25T08:13:36.911Z,52.19
2022-11-25T08:16:04.960Z,51.95
2022-11-25T08:18:32.622Z,51.77
2022-11-25T08:21:00.526Z,52.26
2022-11-25T08:23:28.137Z,52.26
2022-11-25T08:25:57.052Z,52.00
2022-11-25T08:28:24.659Z,52.51
2022-11-25T08:30:52.307Z,52.35
2022-11-25T08:33:19.867Z,52.73
2022-11-25T08:35:54.253Z,52.48
2022-11-25T08:38:21.863Z,52.46
2022-11-25T08:40:49.418Z,52.51
2022-11-25T08:43:21.936Z,52.51
2022-11-25T08:45:51.536Z,52.46
2022-11-25T08:48:19.997Z,52.55
2022-11-25T08:50:48.924Z,52.43
2022-11-25T08:53:16.515Z,52.56
2022-11-25T08:55:44.430Z,52.75
2022-11-25T08:58:13.135Z,52.77
2022-11-25T09:00:42.142Z,52.95
2022-11-25T09:03:09.908Z,50.31
2022-11-25T09:05:40.180Z,49.60
2022-11-25T09:08:07.913Z,51.78
2022-11-25T09:10:35.866Z,52.60
2022-11-25T09:13:03.439Z,53.20
2022-11-25T09:15:31.605Z,54.02
2022-11-25T09:18:01.164Z,54.49
2022-11-25T09:20:28.769Z,55.06
2022-11-25T09:22:56.342Z,55.56
2022-11-25T09:25:23.908Z,56.01
2022-11-25T09:27:51.490Z,56.27
2022-11-25T09:30:19.359Z,56.51
2022-11-25T09:32:49.400Z,56.70
2022-11-25T09:35:18.603Z,57.01
2022-11-25T09:37:46.143Z,57.50
2022-11-25T09:40:18.485Z,57.73
2022-11-25T09:43:08.357Z,58.06
2022-11-25T09:45:57.231Z,57.66
2022-11-25T09:48:35.697Z,57.86
2022-11-25T09:51:08.656Z,58.17
2022-11-25T09:53:43.017Z,58.25
2022-11-25T09:56:14.981Z,58.47
2022-11-25T09:58:45.638Z,58.38
2022-11-25T10:01:15.322Z,58.60
2022-11-25T10:03:45.006Z,58.93
2022-11-25T10:06:16.357Z,59.00
2022-11-25T10:08:44.916Z,59.10
2022-11-25T10:11:23.744Z,59.24
2022-11-25T10:13:55.835Z,59.08
2022-11-25T10:16:31.677Z,59.39
2022-11-25T10:19:01.098Z,59.19
2022-11-25T10:21:29.988Z,59.34
2022-11-25T10:23:57.760Z,59.46
2022-11-25T10:26:30.223Z,59.38
2022-11-25T10:29:01.380Z,59.71
2022-11-25T10:31:31.457Z,59.78
2022-11-25T10:33:59.870Z,59.63
2022-11-25T10:36:28.769Z,58.80
2022-11-25T10:38:58.463Z,58.81
2022-11-25T10:41:28.317Z,58.71
2022-11-25T10:43:55.917Z,59.08
2022-11-25T10:46:43.353Z,59.25
2022-11-25T10:49:16.036Z,58.51
2022-11-25T10:51:46.997Z,58.32
2022-11-25T10:54:20.459Z,58.77
2022-11-25T10:56:52.103Z,58.83
2022-11-25T10:59:24.765Z,59.05
2022-11-25T11:01:52.978Z,58.97
2022-11-25T11:04:20.568Z,59.34
2022-11-25T11:06:48.944Z,59.09
2022-11-25T11:09:33.669Z,59.61
2022-11-25T11:12:08.966Z,59.79
2022-11-25T11:14:36.777Z,59.87
2022-11-25T11:17:04.482Z,59.06
2022-11-25T11:19:32.164Z,58.74
2022-11-25T11:22:16.103Z,58.15
2022-11-25T11:24:45.088Z,57.74
2022-11-25T11:27:17.628Z,57.35
2022-11-25T11:29:45.202Z,56.83
2022-11-25T11:32:21.599Z,56.86
2022-11-25T11:34:55.063Z,56.79
2022-11-25T11:37:37.670Z,56.19
2022-11-25T11:40:20.041Z,56.06
2022-11-25T11:42:59.191Z,55.49
2022-11-25T11:45:36.744Z,55.96
2022-11-25T11:48:10.736Z,55.87
2022-11-25T11:50:39.775Z,55.20
2022-11-25T11:53:11.677Z,55.11
2022-11-25T11:56:19.090Z,55.00
2022-11-25T11:58:52.081Z,55.55
2022-11-25T12:01:27.649Z,55.49
2022-11-25T12:03:58.349Z,55.39
2022-11-25T12:06:26.928Z,55.28
2022-11-25T12:08:59.216Z,54.91
2022-11-25T12:11:30.014Z,54.97
2022-11-25T12:14:01.157Z,54.98
2022-11-25T12:16:32.331Z,54.20
2022-11-25T12:19:01.970Z,54.55
2022-11-25T12:21:41.659Z,55.08
2022-11-25T12:24:13.463Z,55.30
2022-11-25T12:26:45.972Z,55.46
2022-11-25T12:29:14.695Z,55.04
2022-11-25T12:31:44.957Z,55.20
2022-11-25T12:34:13.572Z,55.47
2022-11-25T12:36:41.628Z,55.40
2022-11-25T12:39:15.264Z,55.73
2022-11-25T12:41:44.943Z,56.19
2022-11-25T12:44:15.628Z,55.94
2022-11-25T12:46:45.576Z,56.09
2022-11-25T12:49:16.852Z,56.14
2022-11-25T12:52:01.387Z,56.29
2022-11-25T12:54:37.417Z,56.69
2022-11-25T12:57:22.406Z,56.40
2022-11-25T13:00:32.826Z,56.57
2022-11-25T13:03:08.097Z,56.58
2022-11-25T13:05:53.127Z,56.50
2022-11-25T13:08:28.315Z,56.40
2022-11-25T13:11:07.004Z,54.39
2022-11-25T13:13:43.666Z,56.08
2022-11-25T13:16:12.102Z,55.96
2022-11-25T13:18:41.560Z,55.93
2022-11-25T13:21:09.716Z,56.05
2022-11-25T13:23:49.548Z,56.13
2022-11-25T13:26:47.158Z,56.43
2022-11-25T13:30:03.811Z,56.54
2022-11-25T13:32:37.697Z,56.39
2022-11-25T13:35:39.209Z,56.66
2022-11-25T13:38:26.661Z,56.68
2022-11-25T13:40:57.778Z,56.91
2022-11-25T13:43:25.347Z,56.81
2022-11-25T13:45:52.976Z,56.97
2022-11-25T13:48:23.220Z,56.98
2022-11-25T13:53:39.127Z,57.07
2022-11-25T13:56:14.435Z,57.30
2022-11-25T13:58:42.004Z,57.20
2022-11-25T14:01:28.025Z,57.17
2022-11-25T14:04:01.025Z,57.36
2022-11-25T14:06:51.273Z,57.33
2022-11-25T14:09:37.286Z,57.51
2022-11-25T14:12:12.238Z,57.48
2022-11-25T14:14:51.506Z,57.52
2022-11-25T14:17:31.223Z,44.13
2022-11-25T14:20:10.367Z,47.93
2022-11-25T14:22:52.015Z,50.32
2022-11-25T14:25:22.134Z,51.43
2022-11-25T14:27:51.699Z,51.76
2022-11-25T14:30:19.312Z,52.32
2022-11-25T14:32:50.628Z,52.54
2022-11-25T14:35:20.696Z,52.92
2022-11-25T14:37:49.836Z,53.10
2022-11-25T14:40:22.465Z,53.38
2022-11-25T14:42:51.219Z,53.51
2022-11-25T14:45:23.546Z,53.60
2022-11-25T14:47:51.127Z,54.02
2022-11-25T14:50:34.719Z,54.13
2022-11-25T14:53:06.956Z,54.34
2022-11-25T14:55:34.564Z,54.68
2022-11-25T14:58:02.227Z,54.97
2022-11-25T15:00:29.816Z,55.54
2022-11-25T15:02:58.031Z,55.35
2022-11-25T15:05:27.768Z,55.52
2022-11-25T15:07:58.414Z,55.66
2022-11-25T15:10:39.277Z,56.00
2022-11-25T15:13:12.391Z,56.01
2022-11-25T15:15:39.973Z,56.20
2022-11-25T15:18:07.812Z,56.33
2022-11-25T15:20:37.425Z,56.46
2022-11-25T15:23:04.985Z,56.71
2022-11-25T15:25:32.565Z,56.85
2022-11-25T15:28:00.139Z,56.75
2022-11-25T15:30:29.199Z,55.47
2022-11-25T15:32:56.779Z,56.17
2022-11-25T15:35:25.436Z,56.24
2022-11-25T15:37:55.008Z,56.32
2022-11-25T15:40:31.118Z,55.95
2022-11-25T15:42:59.196Z,56.23
2022-11-25T15:45:26.784Z,56.67
2022-11-25T15:47:54.417Z,56.82
2022-11-25T15:50:23.312Z,57.32
2022-11-25T15:52:51.632Z,57.56
2022-11-25T15:55:22.416Z,57.92
2022-11-25T15:57:50.473Z,57.86
2022-11-25T16:00:19.113Z,57.93
2022-11-25T16:02:54.090Z,58.27
2022-11-25T16:05:39.657Z,58.40
2022-11-25T16:08:32.323Z,58.63
2022-11-25T16:11:10.985Z,59.00
2022-11-25T16:13:39.586Z,59.01
2022-11-25T16:16:18.190Z,59.09
2022-11-25T16:19:06.013Z,59.10
2022-11-25T16:21:41.158Z,59.16
2022-11-25T16:24:14.416Z,59.09
2022-11-25T16:26:50.904Z,59.02
2022-11-25T16:29:19.891Z,59.16
2022-11-25T16:31:47.512Z,58.96
2022-11-25T16:34:16.452Z,59.10
2022-11-25T16:36:44.152Z,59.04
2022-11-25T16:39:11.716Z,59.39
2022-11-25T16:41:39.340Z,59.46
2022-11-25T16:44:11.206Z,59.63
2022-11-25T16:46:38.783Z,59.95
2022-11-25T16:49:06.737Z,60.04
2022-11-25T16:51:34.328Z,60.18
2022-11-25T16:54:01.887Z,60.46
2022-11-25T16:56:29.527Z,60.44
2022-11-25T16:58:57.180Z,60.69
2022-11-25T17:01:27.432Z,60.79
2022-11-25T17:03:55.175Z,60.94
2022-11-25T17:06:23.896Z,60.99
2022-11-25T17:08:51.614Z,60.96
2022-11-25T17:11:20.836Z,60.99
2022-11-25T17:13:50.344Z,61.22
2022-11-25T17:16:18.975Z,61.18
2022-11-25T17:18:48.144Z,61.21
2022-11-25T17:21:16.257Z,61.23
2022-11-25T17:23:44.087Z,61.51
2022-11-25T17:26:14.891Z,61.51
2022-11-25T17:28:42.466Z,61.02
2022-11-25T17:31:10.394Z,61.05
2022-11-25T17:33:38.196Z,61.18
2022-11-25T17:36:09.978Z,61.45
2022-11-25T17:38:39.404Z,61.59
2022-11-25T17:41:09.572Z,61.26
2022-11-25T17:43:37.145Z,61.59
2022-11-25T17:46:04.848Z,61.31
2022-11-25T17:48:32.481Z,61.37
2022-11-25T17:51:04.556Z,61.16
2022-11-25T17:53:37.803Z,60.98
2022-11-25T17:56:12.962Z,60.42
2022-11-25T17:58:40.564Z,60.01
2022-11-25T18:01:09.557Z,59.92
2022-11-25T18:03:37.445Z,59.42
2022-11-25T18:06:06.532Z,58.63
2022-11-25T18:08:34.104Z,59.26
2022-11-25T18:11:03.781Z,59.60
2022-11-25T18:13:31.906Z,59.78
2022-11-25T18:15:59.476Z,59.82
2022-11-25T18:18:27.126Z,59.93
2022-11-25T18:20:55.806Z,59.86
2022-11-25T18:23:23.415Z,60.25
2022-11-25T18:25:50.973Z,60.14
2022-11-25T18:28:21.921Z,60.02
2022-11-25T18:30:49.646Z,60.23
2022-11-25T18:33:18.445Z,59.92
2022-11-25T18:35:46.726Z,59.59
2022-11-25T18:38:14.345Z,59.52
2022-11-25T18:40:42.504Z,59.44
2022-11-25T18:43:14.496Z,59.16
2022-11-25T18:45:43.507Z,59.09
2022-11-25T18:48:14.519Z,58.85
2022-11-25T18:50:42.186Z,58.66
2022-11-25T18:53:09.824Z,58.48
2022-11-25T18:55:37.374Z,58.05
2022-11-25T18:58:05.764Z,57.81
2022-11-25T19:00:33.796Z,57.41
2022-11-25T19:03:02.929Z,57.37
2022-11-25T19:05:31.655Z,56.69
2022-11-25T19:07:59.323Z,56.74
2022-11-25T19:10:28.441Z,56.54
2022-11-25T19:12:58.232Z,55.98
2022-11-25T19:15:26.033Z,55.72
2022-11-25T19:17:55.647Z,55.61
2022-11-25T19:20:25.187Z,55.14
2022-11-25T19:22:56.681Z,54.28
2022-11-25T19:25:27.854Z,54.60
2022-11-25T19:27:57.430Z,54.73
2022-11-25T19:30:27.787Z,54.94
2022-11-25T19:32:55.804Z,54.75
2022-11-25T19:35:28.038Z,55.33
2022-11-25T19:37:55.722Z,54.79
2022-11-25T19:40:25.036Z,54.99
2022-11-25T19:42:52.620Z,54.70
2022-11-25T19:45:21.208Z,55.18
2022-11-25T19:47:50.495Z,54.85
2022-11-25T19:50:21.040Z,55.32
2022-11-25T19:52:50.105Z,54.40
2022-11-25T19:55:18.760Z,54.57
2022-11-25T19:57:48.679Z,54.53
2022-11-25T20:00:17.272Z,54.44
2022-11-25T20:02:45.338Z,54.44
2022-11-25T20:05:16.655Z,54.40
2022-11-25T20:07:45.050Z,54.58
2022-11-25T20:10:18.635Z,54.66
2022-11-25T20:12:46.353Z,54.58
2022-11-25T20:15:13.992Z,54.80
2022-11-25T20:17:43.112Z,54.70
2022-11-25T20:20:15.256Z,54.70
2022-11-25T20:22:44.855Z,54.66
2022-11-25T20:25:12.683Z,54.43
2022-11-25T20:27:41.737Z,54.47
2022-11-25T20:30:16.247Z,54.53
2022-11-25T20:32:44.090Z,54.56
2022-11-25T20:35:12.719Z,54.80
2022-11-25T20:37:50.941Z,55.14
2022-11-25T20:40:19.932Z,55.18
2022-11-25T20:42:49.356Z,55.43
2022-11-25T20:45:17.340Z,55.67
2022-11-25T20:47:44.948Z,55.58
2022-11-25T20:50:14.196Z,55.83
2022-11-25T20:52:41.896Z,56.17
2022-11-25T20:55:18.496Z,56.25
2022-11-25T20:57:46.119Z,56.57
2022-11-25T21:00:17.834Z,56.55
2022-11-25T21:02:45.514Z,56.57
2022-11-25T21:05:13.118Z,56.94
2022-11-25T21:07:40.838Z,56.89
2022-11-25T21:10:18.494Z,57.09
2022-11-25T21:12:46.156Z,57.18
2022-11-25T21:15:16.611Z,57.37
2022-11-25T21:17:44.242Z,57.36
2022-11-25T21:20:12.859Z,57.54
2022-11-25T21:22:41.462Z,57.44
2022-11-25T21:25:12.381Z,57.66
2022-11-25T21:27:40.063Z,57.68
2022-11-25T21:30:09.167Z,57.95
2022-11-25T21:32:38.116Z,57.80
2022-11-25T21:35:06.383Z,57.84
2022-11-25T21:37:35.590Z,58.11
2022-11-25T21:40:03.208Z,58.03
2022-11-25T21:42:30.815Z,58.12
2022-11-25T21:44:58.437Z,58.17
2022-11-25T21:47:28.252Z,58.14
2022-11-25T21:49:57.184Z,58.16
2022-11-25T21:52:24.735Z,58.20
2022-11-25T21:54:52.311Z,58.05
2022-11-25T21:57:22.413Z,58.18
2022-11-25T21:59:50.056Z,58.41
2022-11-25T22:02:18.675Z,58.25
2022-11-25T22:04:46.359Z,58.40
2022-11-25T22:07:15.344Z,58.77
2022-11-25T22:09:43.038Z,58.54
2022-11-25T22:12:18.080Z,58.51
2022-11-25T22:14:45.653Z,58.51
2022-11-25T22:17:15.336Z,58.65
2022-11-25T22:19:44.516Z,58.68
2022-11-25T22:22:12.808Z,58.64
2022-11-25T22:24:41.792Z,58.71
2022-11-25T22:27:12.174Z,58.53
2022-11-25T22:29:39.753Z,58.55
2022-11-25T22:32:12.620Z,58.63
2022-11-25T22:34:40.714Z,58.40
2022-11-25T22:37:15.653Z,58.61
2022-11-25T22:39:44.681Z,58.53
2022-11-25T22:42:17.126Z,58.62
2022-11-25T22:44:45.952Z,58.71
2022-11-25T22:47:17.297Z,58.81
2022-11-25T22:49:46.152Z,58.89
2022-11-25T22:52:18.437Z,58.98
2022-11-25T22:54:47.368Z,59.14
2022-11-25T22:57:15.084Z,59.12
2022-11-25T22:59:43.114Z,59.24
2022-11-25T23:02:15.983Z,59.23
2022-11-25T23:04:43.745Z,59.31
2022-11-25T23:07:11.754Z,59.31
2022-11-25T23:09:39.457Z,59.37
2022-11-25T23:12:10.608Z,59.44
2022-11-25T23:14:38.627Z,59.40
2022-11-25T23:17:07.457Z,59.42
2022-11-25T23:19:35.196Z,59.41
2022-11-25T23:22:02.771Z,59.37
2022-11-25T23:24:30.342Z,59.51
2022-11-25T23:26:57.916Z,59.48
2022-11-25T23:29:27.910Z,59.54
2022-11-25T23:31:55.569Z,59.60
2022-11-25T23:34:23.203Z,59.85
2022-11-25T23:36:50.751Z,59.75
2022-11-25T23:39:20.044Z,59.72
2022-11-25T23:41:47.680Z,59.74
2022-11-25T23:44:16.781Z,59.85
2022-11-25T23:46:45.716Z,59.97
2022-11-25T23:49:17.206Z,59.89
2022-11-25T23:51:44.776Z,59.91
2022-11-25T23:54:13.148Z,60.21
2022-11-25T23:56:40.744Z,60.06
2022-11-25T23:59:12.832Z,60.11
